Cheektowaga, New York
Current Conditions -  °F | °C
As of 3:54 PM on Friday 31 Oct 2014 (Local Time) from KBUF Reporting Station
Light Rain Light Rain  
Wind Chill: 45°   Ceiling: 4300
Heat Index: 48°   Visibility: 10mi
Dew Point: 38°   Wind: 6mph
Humidity: 68%   Direction: 120°ESE
Pressure: 29.89"   Gusts: NA
Location:  42.9°N, 78.74°W
Report Text: KBUF 311954Z 12005KT 10SM -RA FEW030 BKN043 OVC060 09/03 A2989 RMK AO2 RAB42 SLP124 PCPN VRY LGT P0000 T00890033
Loading
Personal Weather Stations






























Interactive Weather Map
Tropical Storm Tracking
New forecast layout! Learn more

10-Day Weather Forecast

Advertisements
Track Severe Weather on mobile